createdAt,value
2017-09-02T00:01:01.153Z,25.10
2017-09-02T00:03:27.590Z,23.20
2017-09-02T00:05:54.019Z,22.70
2017-09-02T00:08:20.458Z,23.70
2017-09-02T00:10:46.893Z,21.90
2017-09-02T00:13:13.327Z,25.43
2017-09-02T00:15:39.762Z,29.37
2017-09-02T00:18:06.202Z,28.90
2017-09-02T00:20:32.632Z,20.50
2017-09-02T00:22:59.068Z,20.43
2017-09-02T00:25:25.505Z,19.27
2017-09-02T00:27:51.934Z,20.33
2017-09-02T00:30:18.328Z,21.43
2017-09-02T00:32:44.808Z,21.40
2017-09-02T00:35:11.243Z,22.87
2017-09-02T00:37:37.676Z,20.40
2017-09-02T00:40:04.109Z,24.40
2017-09-02T00:42:30.546Z,19.47
2017-09-02T00:44:56.981Z,24.10
2017-09-02T00:47:23.416Z,20.00
2017-09-02T00:49:49.951Z,23.10
2017-09-02T00:52:16.389Z,23.10
2017-09-02T00:54:42.782Z,23.97
2017-09-02T00:57:09.260Z,25.03
2017-09-02T00:59:35.694Z,25.00
2017-09-02T01:02:02.129Z,27.50
2017-09-02T01:04:28.563Z,22.20
2017-09-02T01:06:54.982Z,23.03
2017-09-02T01:09:21.428Z,26.40
2017-09-02T01:11:47.970Z,20.40
2017-09-02T01:14:14.404Z,20.10
2017-09-02T01:16:40.791Z,24.30
2017-09-02T01:19:07.271Z,25.43
2017-09-02T01:21:33.710Z,20.60
2017-09-02T01:24:00.246Z,21.27
2017-09-02T01:26:26.686Z,20.90
2017-09-02T01:28:53.116Z,21.50
2017-09-02T01:31:19.556Z,23.87
2017-09-02T01:33:45.987Z,20.10
2017-09-02T01:36:12.422Z,18.73
2017-09-02T01:38:38.855Z,25.63
2017-09-02T01:41:05.291Z,21.80
2017-09-02T01:43:31.674Z,24.83
2017-09-02T01:45:58.163Z,20.50
2017-09-02T01:48:24.597Z,20.00
2017-09-02T01:50:51.034Z,20.80
2017-09-02T01:53:17.467Z,27.77
2017-09-02T01:55:43.901Z,20.67
2017-09-02T01:58:10.335Z,22.90
2017-09-02T02:00:36.771Z,24.40
2017-09-02T02:03:03.164Z,25.27
2017-09-02T02:05:29.574Z,26.70
2017-09-02T02:07:56.075Z,23.40
2017-09-02T02:10:22.507Z,31.77
2017-09-02T02:12:48.942Z,23.30
2017-09-02T02:15:15.379Z,25.60
2017-09-02T02:17:41.919Z,20.43
2017-09-02T02:20:08.351Z,24.53
2017-09-02T02:22:34.753Z,25.97
2017-09-02T02:25:01.220Z,22.07
2017-09-02T02:27:27.607Z,19.40
2017-09-02T02:29:54.091Z,25.57
2017-09-02T02:32:20.529Z,23.17
2017-09-02T02:34:47.474Z,21.00
2017-09-02T02:37:13.908Z,21.73
2017-09-02T02:39:40.342Z,21.90
2017-09-02T02:42:07.494Z,22.57
2017-09-02T02:44:33.931Z,24.60
2017-09-02T02:47:00.356Z,22.43
2017-09-02T02:49:26.758Z,21.30
2017-09-02T02:51:53.234Z,26.67
2017-09-02T02:54:19.666Z,28.03
2017-09-02T02:56:46.202Z,19.60
2017-09-02T02:59:13.358Z,21.20
2017-09-02T03:01:39.895Z,24.00
2017-09-02T03:04:06.329Z,24.53
2017-09-02T03:06:32.771Z,25.50
2017-09-02T03:08:59.200Z,24.93
2017-09-02T03:11:25.637Z,21.10
2017-09-02T03:13:52.172Z,19.47
2017-09-02T03:16:18.606Z,22.57
2017-09-02T03:18:45.043Z,31.50
2017-09-02T03:21:11.479Z,25.90
2017-09-02T03:23:37.912Z,27.10
2017-09-02T03:26:04.350Z,24.57
2017-09-02T03:28:30.754Z,25.13
2017-09-02T03:30:57.921Z,29.93
2017-09-02T03:33:24.370Z,25.70
2017-09-02T03:35:50.756Z,35.27
2017-09-02T03:38:17.224Z,29.43
2017-09-02T03:40:43.665Z,38.87
2017-09-02T03:43:10.211Z,24.70
2017-09-02T03:45:36.642Z,36.03
2017-09-02T03:48:03.080Z,32.10
2017-09-02T03:50:29.617Z,33.63
2017-09-02T03:52:56.154Z,24.73
2017-09-02T03:55:22.694Z,27.70
2017-09-02T03:57:49.127Z,23.83
2017-09-02T04:00:15.562Z,21.53
2017-09-02T04:02:42.768Z,36.87
2017-09-02T04:05:09.204Z,25.27
2017-09-02T04:07:35.685Z,29.50
2017-09-02T04:10:02.121Z,22.10
2017-09-02T04:12:28.555Z,30.87
2017-09-02T04:14:54.991Z,26.20
2017-09-02T04:17:21.425Z,22.53
2017-09-02T04:19:47.962Z,21.17
2017-09-02T04:22:14.397Z,24.40
2017-09-02T04:24:41.481Z,24.10
2017-09-02T04:27:07.985Z,24.67
2017-09-02T04:29:34.418Z,25.50
2017-09-02T04:32:00.860Z,23.33
2017-09-02T04:34:27.289Z,27.90
2017-09-02T04:36:53.724Z,29.33
2017-09-02T04:39:20.160Z,31.97
2017-09-02T04:41:46.593Z,26.40
2017-09-02T04:44:13.028Z,32.43
2017-09-02T04:46:39.464Z,31.10
2017-09-02T04:49:05.898Z,24.53
2017-09-02T04:51:32.335Z,23.90
2017-09-02T04:53:58.720Z,26.93
2017-09-02T04:56:26.022Z,32.10
2017-09-02T04:58:52.457Z,28.73
2017-09-02T05:01:18.892Z,22.03
2017-09-02T05:03:45.326Z,22.50
2017-09-02T05:06:11.759Z,20.53
2017-09-02T05:08:38.193Z,21.43
2017-09-02T05:11:04.631Z,22.90
2017-09-02T05:13:31.069Z,21.23
2017-09-02T05:15:57.500Z,16.90
2017-09-02T05:18:23.938Z,25.23
2017-09-02T05:20:50.371Z,20.10
2017-09-02T05:23:16.748Z,27.47
2017-09-02T05:25:43.221Z,21.00
2017-09-02T05:28:09.616Z,19.63
2017-09-02T05:30:36.111Z,25.37
2017-09-02T05:33:02.545Z,21.37
2017-09-02T05:35:28.980Z,20.63
2017-09-02T05:37:55.368Z,23.63
2017-09-02T05:40:21.866Z,22.40
2017-09-02T05:42:48.386Z,25.33
2017-09-02T05:45:14.822Z,27.40
2017-09-02T05:47:41.257Z,20.40
2017-09-02T05:50:07.691Z,23.90
2017-09-02T05:52:34.127Z,22.03
2017-09-02T05:55:00.563Z,25.20
2017-09-02T05:57:26.999Z,17.03
2017-09-02T05:59:53.431Z,20.63
2017-09-02T06:02:19.866Z,26.40
2017-09-02T06:04:46.301Z,29.50
2017-09-02T06:07:12.736Z,29.30
2017-09-02T06:09:39.170Z,32.23
2017-09-02T06:12:05.605Z,37.63
2017-09-02T06:14:32.143Z,48.63
2017-09-02T06:16:59.296Z,39.10
2017-09-02T06:19:25.729Z,41.00
2017-09-02T06:21:52.162Z,49.57
2017-09-02T06:24:18.598Z,43.07
2017-09-02T06:26:45.035Z,39.67
2017-09-02T06:29:11.469Z,33.20
2017-09-02T06:31:37.905Z,35.60
2017-09-02T06:34:04.339Z,36.23
2017-09-02T06:36:30.774Z,31.70
2017-09-02T06:38:57.208Z,33.50
2017-09-02T06:41:23.643Z,38.93
2017-09-02T06:43:50.486Z,31.83
2017-09-02T06:46:16.924Z,29.40
2017-09-02T06:48:43.358Z,35.60
2017-09-02T06:51:09.998Z,25.53
2017-09-02T06:53:36.535Z,28.70
2017-09-02T06:56:02.970Z,27.10
2017-09-02T06:58:29.405Z,27.77
2017-09-02T07:00:56.250Z,27.03
2017-09-02T07:03:22.740Z,24.30
2017-09-02T07:05:49.221Z,28.00
2017-09-02T07:08:15.963Z,21.13
2017-09-02T07:10:42.352Z,19.10
2017-09-02T07:13:08.783Z,25.57
2017-09-02T07:15:35.166Z,27.67
2017-09-02T07:18:02.269Z,25.60
2017-09-02T07:20:28.753Z,23.17
2017-09-02T07:22:55.290Z,23.13
2017-09-02T07:25:21.724Z,22.23
2017-09-02T07:27:48.159Z,18.13
2017-09-02T07:30:14.594Z,26.20
2017-09-02T07:32:41.131Z,27.57
2017-09-02T07:35:07.566Z,37.90
2017-09-02T07:37:34.002Z,25.80
2017-09-02T07:40:00.435Z,22.00
2017-09-02T07:42:27.283Z,23.10
2017-09-02T07:44:53.715Z,18.67
2017-09-02T07:47:20.153Z,22.00
2017-09-02T07:49:46.587Z,39.00
2017-09-02T07:52:13.081Z,20.53
2017-09-02T07:54:39.452Z,31.37
2017-09-02T07:57:05.890Z,22.87
2017-09-02T07:59:32.331Z,21.17
2017-09-02T08:01:58.818Z,16.13
2017-09-02T08:04:25.279Z,13.80
2017-09-02T08:06:51.638Z,12.60
2017-09-02T08:09:18.169Z,12.37
2017-09-02T08:11:45.117Z,12.23
2017-09-02T08:14:11.500Z,14.17
2017-09-02T08:16:37.971Z,17.53
2017-09-02T08:19:04.420Z,13.87
2017-09-02T08:21:30.804Z,13.13
2017-09-02T08:23:57.290Z,9.93
2017-09-02T08:26:23.724Z,14.63
2017-09-02T08:28:50.155Z,17.63
2017-09-02T08:31:17.003Z,13.33
2017-09-02T08:33:43.494Z,14.13
2017-09-02T08:36:09.974Z,12.80
2017-09-02T08:38:36.409Z,12.00
2017-09-02T08:41:02.802Z,12.80
2017-09-02T08:43:29.279Z,11.10
2017-09-02T08:45:55.713Z,11.00
2017-09-02T08:48:23.436Z,10.73
2017-09-02T08:50:49.915Z,13.50
2017-09-02T08:53:16.453Z,16.50
2017-09-02T08:55:42.990Z,11.50
2017-09-02T08:58:09.424Z,11.17
2017-09-02T09:00:35.858Z,13.00
2017-09-02T09:03:02.396Z,9.87
2017-09-02T09:05:29.241Z,11.57
2017-09-02T09:07:55.984Z,15.90
2017-09-02T09:10:22.419Z,11.67
2017-09-02T09:12:48.956Z,13.17
2017-09-02T09:15:15.374Z,16.43
2017-09-02T09:17:41.818Z,11.30
2017-09-02T09:20:08.567Z,12.03
2017-09-02T09:22:35.104Z,11.67
2017-09-02T09:25:01.540Z,19.80
2017-09-02T09:27:28.281Z,16.70
2017-09-02T09:29:54.717Z,14.43
2017-09-02T09:32:21.254Z,11.33
2017-09-02T09:34:47.893Z,11.70
2017-09-02T09:37:14.329Z,13.93
2017-09-02T09:39:40.718Z,17.13
2017-09-02T09:42:07.197Z,11.17
2017-09-02T09:44:33.584Z,10.87
2017-09-02T09:47:00.068Z,14.67
2017-09-02T09:49:26.606Z,11.40
2017-09-02T09:51:53.859Z,10.80
2017-09-02T09:54:20.297Z,11.87
2017-09-02T09:56:46.736Z,15.67
2017-09-02T09:59:13.164Z,15.50
2017-09-02T10:01:39.600Z,10.87
2017-09-02T10:04:06.034Z,11.43
2017-09-02T10:06:32.419Z,12.23
2017-09-02T10:08:58.908Z,16.00
2017-09-02T10:11:25.340Z,16.43
2017-09-02T10:13:51.875Z,16.77
2017-09-02T10:16:18.268Z,13.83
2017-09-02T10:18:44.710Z,13.40
2017-09-02T10:21:11.181Z,17.67
2017-09-02T10:23:37.718Z,55.33
2017-09-02T10:26:04.162Z,16.03
2017-09-02T10:28:30.587Z,17.70
2017-09-02T10:30:57.023Z,12.03
2017-09-02T10:33:23.512Z,12.97
2017-09-02T10:35:49.994Z,12.07
2017-09-02T10:38:16.427Z,12.30
2017-09-02T10:40:42.915Z,17.40
2017-09-02T10:43:09.914Z,14.60
2017-09-02T10:45:36.319Z,12.03
2017-09-02T10:48:02.736Z,12.57
2017-09-02T10:50:29.116Z,18.30
2017-09-02T10:52:55.653Z,11.50
2017-09-02T10:55:22.040Z,18.50
2017-09-02T10:57:48.508Z,25.10
2017-09-02T11:00:14.957Z,11.57
2017-09-02T11:02:41.446Z,14.60
2017-09-02T11:05:07.913Z,12.43
2017-09-02T11:07:35.185Z,16.90
2017-09-02T11:10:01.619Z,13.60
2017-09-02T11:12:28.156Z,28.83
2017-09-02T11:14:54.592Z,11.20
2017-09-02T11:17:21.029Z,12.43
2017-09-02T11:19:47.461Z,16.67
2017-09-02T11:22:14.010Z,12.50
2017-09-02T11:24:40.433Z,10.30
2017-09-02T11:27:06.851Z,11.17
2017-09-02T11:29:33.295Z,13.83
2017-09-02T11:32:00.869Z,9.33
2017-09-02T11:34:27.301Z,9.73
2017-09-02T11:36:53.733Z,9.10
2017-09-02T11:39:20.171Z,44.67
2017-09-02T11:41:46.609Z,8.80
2017-09-02T11:44:13.039Z,8.17
2017-09-02T11:46:39.475Z,8.30
2017-09-02T11:49:05.908Z,8.17
2017-09-02T11:51:32.344Z,7.63
2017-09-02T11:53:58.781Z,7.30
2017-09-02T11:56:27.878Z,7.20
2017-09-02T11:58:54.618Z,6.63
2017-09-02T12:01:22.980Z,6.80
2017-09-02T12:03:50.572Z,8.07
2017-09-02T12:06:17.305Z,5.83
2017-09-02T12:08:44.708Z,6.77
2017-09-02T12:11:12.148Z,6.77
2017-09-02T12:13:40.626Z,6.60
2017-09-02T12:16:07.445Z,6.20
2017-09-02T12:18:34.646Z,6.63
2017-09-02T12:21:01.338Z,6.30
2017-09-02T12:23:29.248Z,6.13
2017-09-02T12:25:56.361Z,5.62
2017-09-02T12:28:22.795Z,5.45
2017-09-02T12:30:49.741Z,6.87
2017-09-02T12:33:16.844Z,4.90
2017-09-02T12:35:44.268Z,5.10
2017-09-02T12:38:10.783Z,4.80
2017-09-02T12:40:38.290Z,4.57
2017-09-02T12:43:04.885Z,4.97
2017-09-02T12:45:31.627Z,4.40
2017-09-02T12:47:58.062Z,4.68
2017-09-02T12:50:24.496Z,4.57
2017-09-02T12:52:50.931Z,4.80
2017-09-02T12:55:17.367Z,4.45
2017-09-02T12:57:43.729Z,4.78
2017-09-02T13:00:10.224Z,4.45
2017-09-02T13:02:36.672Z,23.38
2017-09-02T13:05:03.106Z,6.30
2017-09-02T13:07:29.544Z,3.92
2017-09-02T13:09:56.080Z,4.00
2017-09-02T13:12:22.518Z,3.92
2017-09-02T13:14:48.949Z,3.75
2017-09-02T13:17:16.097Z,4.30
2017-09-02T13:19:42.484Z,4.20
2017-09-02T13:22:08.926Z,3.80
2017-09-02T13:24:35.406Z,3.80
2017-09-02T13:27:01.839Z,7.40
2017-09-02T13:29:28.377Z,4.00
2017-09-02T13:31:54.812Z,3.95
2017-09-02T13:34:21.964Z,4.10
2017-09-02T13:36:48.399Z,4.37
2017-09-02T13:39:14.831Z,4.43
2017-09-02T13:41:41.262Z,4.43
2017-09-02T13:44:07.807Z,4.15
2017-09-02T13:46:34.242Z,4.47
2017-09-02T13:49:00.625Z,4.00
2017-09-02T13:51:27.930Z,3.97
2017-09-02T13:53:54.364Z,4.05
2017-09-02T13:56:20.799Z,4.45
2017-09-02T13:58:47.234Z,5.62
2017-09-02T14:01:13.670Z,4.55
2017-09-02T14:03:40.105Z,4.47
2017-09-02T14:06:06.539Z,4.50
2017-09-02T14:08:33.691Z,4.50
2017-09-02T14:11:00.125Z,4.62
2017-09-02T14:13:26.560Z,5.03
2017-09-02T14:15:52.994Z,5.78
2017-09-02T14:18:19.431Z,6.20
2017-09-02T14:20:45.865Z,7.40
2017-09-02T14:23:12.274Z,7.17
2017-09-02T14:25:39.452Z,8.07
2017-09-02T14:28:05.992Z,8.20
2017-09-02T14:30:32.425Z,8.40
2017-09-02T14:32:58.858Z,9.50
2017-09-02T14:35:25.296Z,9.40
2017-09-02T14:37:51.728Z,10.17
2017-09-02T14:40:18.166Z,10.27
2017-09-02T14:42:45.315Z,10.17
2017-09-02T14:45:11.750Z,13.33
2017-09-02T14:47:38.186Z,10.23
2017-09-02T14:50:04.620Z,11.13
2017-09-02T14:52:31.057Z,10.50
2017-09-02T14:54:57.487Z,10.67
2017-09-02T14:57:23.925Z,12.50
2017-09-02T14:59:51.180Z,16.30
2017-09-02T15:02:17.617Z,11.50
2017-09-02T15:04:44.050Z,11.70
2017-09-02T15:07:10.478Z,11.40
2017-09-02T15:09:36.917Z,11.93
2017-09-02T15:12:03.337Z,12.00
2017-09-02T15:14:29.794Z,15.93
2017-09-02T15:16:56.942Z,11.73
2017-09-02T15:19:23.376Z,10.30
2017-09-02T15:21:49.812Z,15.03
2017-09-02T15:24:16.245Z,15.37
2017-09-02T15:26:42.633Z,14.37
2017-09-02T15:29:09.113Z,13.10
2017-09-02T15:31:35.532Z,11.90
2017-09-02T15:34:02.745Z,11.63
2017-09-02T15:36:29.136Z,11.20
2017-09-02T15:38:55.570Z,11.90
2017-09-02T15:41:22.006Z,14.13
2017-09-02T15:43:48.440Z,12.73
2017-09-02T15:46:14.878Z,12.47
2017-09-02T15:48:41.315Z,16.00
2017-09-02T15:51:08.463Z,12.80
2017-09-02T15:53:34.897Z,10.93
2017-09-02T15:56:01.331Z,10.60
2017-09-02T15:58:27.767Z,12.33
2017-09-02T16:00:54.202Z,10.90
2017-09-02T16:03:20.642Z,13.07
2017-09-02T16:05:47.070Z,15.90
2017-09-02T16:08:13.460Z,13.00
2017-09-02T16:10:39.941Z,15.10
2017-09-02T16:13:06.376Z,12.40
2017-09-02T16:15:32.813Z,14.70
2017-09-02T16:17:59.246Z,12.50
2017-09-02T16:20:25.785Z,11.20
2017-09-02T16:22:52.217Z,20.57
2017-09-02T16:25:19.369Z,25.10
2017-09-02T16:27:45.804Z,24.57
2017-09-02T16:30:12.239Z,22.13
2017-09-02T16:32:38.635Z,16.93
2017-09-02T16:35:05.104Z,22.03
2017-09-02T16:37:31.544Z,24.10
2017-09-02T16:39:58.083Z,25.77
2017-09-02T16:42:25.132Z,22.10
2017-09-02T16:44:51.569Z,20.97
2017-09-02T16:47:18.103Z,17.17
2017-09-02T16:49:44.540Z,21.30
2017-09-02T16:52:10.973Z,21.40
2017-09-02T16:54:37.410Z,24.33
2017-09-02T16:57:03.843Z,22.30
2017-09-02T16:59:31.096Z,27.20
2017-09-02T17:01:57.533Z,20.43
2017-09-02T17:04:23.968Z,24.70
2017-09-02T17:06:50.403Z,21.10
2017-09-02T17:09:16.838Z,18.43
2017-09-02T17:11:43.272Z,22.10
2017-09-02T17:14:09.710Z,28.40
2017-09-02T17:16:36.960Z,17.33
2017-09-02T17:19:03.402Z,17.57
2017-09-02T17:21:29.830Z,21.33
2017-09-02T17:23:56.264Z,17.40
2017-09-02T17:26:22.699Z,21.83
2017-09-02T17:28:49.135Z,22.20
2017-09-02T17:31:15.569Z,22.00
2017-09-02T17:33:42.825Z,25.23
2017-09-02T17:36:09.258Z,29.83
2017-09-02T17:38:35.693Z,32.17
2017-09-02T17:41:02.128Z,20.90
2017-09-02T17:43:28.583Z,22.80
2017-09-02T17:45:55.000Z,30.13
2017-09-02T17:48:21.395Z,20.73
2017-09-02T17:50:48.564Z,27.20
2017-09-02T17:53:15.020Z,29.60
2017-09-02T17:55:41.455Z,22.17
2017-09-02T17:58:07.889Z,18.53
2017-09-02T18:00:34.324Z,17.07
2017-09-02T18:03:00.765Z,18.53
2017-09-02T18:05:27.194Z,33.13
2017-09-02T18:07:54.439Z,34.17
2017-09-02T18:10:20.885Z,28.00
2017-09-02T18:12:47.318Z,26.73
2017-09-02T18:15:13.750Z,36.83
2017-09-02T18:17:40.186Z,25.00
2017-09-02T18:20:06.582Z,24.97
2017-09-02T18:22:33.047Z,21.73
2017-09-02T18:25:00.311Z,27.00
2017-09-02T18:27:26.746Z,33.83
2017-09-02T18:29:53.182Z,26.70
2017-09-02T18:32:19.617Z,29.27
2017-09-02T18:34:46.051Z,24.40
2017-09-02T18:37:12.487Z,27.50
2017-09-02T18:39:38.921Z,25.67
2017-09-02T18:42:06.180Z,27.30
2017-09-02T18:44:32.642Z,26.33
2017-09-02T18:46:59.048Z,27.83
2017-09-02T18:49:25.483Z,30.90
2017-09-02T18:51:51.920Z,24.87
2017-09-02T18:54:18.350Z,25.90
2017-09-02T18:56:44.785Z,27.50
2017-09-02T18:59:11.936Z,32.83
2017-09-02T19:01:38.361Z,23.37
2017-09-02T19:04:04.808Z,25.70
2017-09-02T19:06:31.243Z,29.73
2017-09-02T19:08:57.878Z,22.50
2017-09-02T19:11:24.315Z,24.40
2017-09-02T19:13:50.750Z,24.33
2017-09-02T19:16:17.291Z,27.93
2017-09-02T19:18:43.728Z,22.00
2017-09-02T19:21:10.261Z,18.67
2017-09-02T19:23:36.800Z,25.60
2017-09-02T19:26:03.237Z,17.10
2017-09-02T19:28:29.771Z,26.13
2017-09-02T19:30:56.204Z,20.80
2017-09-02T19:33:22.602Z,19.97
2017-09-02T19:35:49.057Z,20.80
2017-09-02T19:38:15.508Z,18.50
2017-09-02T19:40:42.601Z,17.90
2017-09-02T19:43:08.993Z,15.50
2017-09-02T19:45:35.407Z,21.40
2017-09-02T19:48:01.863Z,17.90
2017-09-02T19:50:28.298Z,17.33
2017-09-02T19:52:54.733Z,15.63
2017-09-02T19:55:21.168Z,18.00
2017-09-02T19:57:48.321Z,17.33
2017-09-02T20:00:14.755Z,16.43
2017-09-02T20:02:41.191Z,22.33
2017-09-02T20:05:07.624Z,18.03
2017-09-02T20:07:34.016Z,17.07
2017-09-02T20:10:00.494Z,17.07
2017-09-02T20:12:26.889Z,14.90
2017-09-02T20:14:53.980Z,18.30
2017-09-02T20:17:20.414Z,14.07
2017-09-02T20:19:46.849Z,17.50
2017-09-02T20:22:13.285Z,13.17
2017-09-02T20:24:39.718Z,18.73
2017-09-02T20:27:06.154Z,19.10
2017-09-02T20:29:32.540Z,16.67
2017-09-02T20:31:59.723Z,17.77
2017-09-02T20:34:26.178Z,14.70
2017-09-02T20:36:52.564Z,16.30
2017-09-02T20:39:19.026Z,15.57
2017-09-02T20:41:45.479Z,15.53
2017-09-02T20:44:11.914Z,14.23
2017-09-02T20:46:38.348Z,15.10
2017-09-02T20:49:05.502Z,20.90
2017-09-02T20:51:32.038Z,14.67
2017-09-02T20:53:58.473Z,17.60
2017-09-02T20:56:24.909Z,12.30
2017-09-02T20:58:51.341Z,14.93
2017-09-02T21:01:17.776Z,15.00
2017-09-02T21:03:44.213Z,13.60
2017-09-02T21:06:11.466Z,19.80
2017-09-02T21:08:37.900Z,18.10
2017-09-02T21:11:04.336Z,19.13
2017-09-02T21:13:30.770Z,15.70
2017-09-02T21:15:57.206Z,16.90
2017-09-02T21:18:23.640Z,15.67
2017-09-02T21:20:50.075Z,14.63
2017-09-02T21:23:17.228Z,14.23
2017-09-02T21:25:43.737Z,13.30
2017-09-02T21:28:10.183Z,13.43
2017-09-02T21:30:36.592Z,14.70
2017-09-02T21:33:03.069Z,20.60
2017-09-02T21:35:29.505Z,21.50
2017-09-02T21:37:55.941Z,18.03
2017-09-02T21:40:23.195Z,16.10
2017-09-02T21:42:49.613Z,16.00
2017-09-02T21:45:16.016Z,15.03
2017-09-02T21:47:42.497Z,14.97
2017-09-02T21:50:08.933Z,25.33
2017-09-02T21:52:35.368Z,24.97
2017-09-02T21:55:01.799Z,16.17
2017-09-02T21:57:28.954Z,16.23
2017-09-02T21:59:55.391Z,29.80
2017-09-02T22:02:21.821Z,17.83
2017-09-02T22:04:48.259Z,17.73
2017-09-02T22:07:14.644Z,49.90
2017-09-02T22:09:41.027Z,19.40
2017-09-02T22:12:07.464Z,15.27
2017-09-02T22:14:34.553Z,18.90
2017-09-02T22:17:01.049Z,13.70
2017-09-02T22:19:27.485Z,14.90
2017-09-02T22:21:53.919Z,22.83
2017-09-02T22:24:20.355Z,13.63
2017-09-02T22:26:46.788Z,18.43
2017-09-02T22:29:13.182Z,16.17
2017-09-02T22:31:40.477Z,22.50
2017-09-02T22:34:06.895Z,18.40
2017-09-02T22:36:33.348Z,18.93
2017-09-02T22:38:59.783Z,16.03
2017-09-02T22:41:26.319Z,15.70
2017-09-02T22:43:52.753Z,22.37
2017-09-02T22:46:19.189Z,17.77
2017-09-02T22:48:46.340Z,17.87
2017-09-02T22:51:12.778Z,23.20
2017-09-02T22:53:39.210Z,17.10
2017-09-02T22:56:05.644Z,19.43
2017-09-02T22:58:32.082Z,17.17
2017-09-02T23:00:58.515Z,17.20
2017-09-02T23:03:24.950Z,19.90
2017-09-02T23:05:52.201Z,20.77
2017-09-02T23:08:18.638Z,15.73
2017-09-02T23:10:45.073Z,14.20
2017-09-02T23:13:11.508Z,19.50
2017-09-02T23:15:37.943Z,16.07
2017-09-02T23:18:04.378Z,17.97
2017-09-02T23:20:30.813Z,19.53
2017-09-02T23:22:57.970Z,17.73
2017-09-02T23:25:24.396Z,20.23
2017-09-02T23:27:50.834Z,15.97
2017-09-02T23:30:17.270Z,18.40
2017-09-02T23:32:43.657Z,19.60
2017-09-02T23:35:10.242Z,18.57
2017-09-02T23:37:36.677Z,21.00
2017-09-02T23:40:03.828Z,18.53
2017-09-02T23:42:30.260Z,18.80
2017-09-02T23:44:56.685Z,18.87
2017-09-02T23:47:23.133Z,26.50
2017-09-02T23:49:49.569Z,29.40
2017-09-02T23:52:16.003Z,26.60
2017-09-02T23:54:42.437Z,20.43
2017-09-02T23:57:09.693Z,21.83
2017-09-02T23:59:36.126Z,19.63
